Arjay, Kentucky
Current Conditions -  °F | °C
As of 7:35 AM on Tuesday 27 Jan 2015 (Local Time) from K1A6 Reporting Station
Overcast Overcast  
Wind Chill: -1°   Ceiling: 1700
Heat Index: -1°   Visibility: 10mi
Dew Point: -2°   Wind: 0mph
Humidity: 90%   Direction: NA
Pressure: 29.91"   Gusts: NA
Location:  36.8°N, 83.65°W
Report Text: K1A6 271235Z AUTO 00000KT 10SM OVC017 M01/M02 A2991 RMK AO2 T10071022
Loading
Personal Weather Stations






























Interactive Weather Map New forecast layout! Learn more

10-Day Weather Forecast

Advertisements
Track Severe Weather on mobile